createdAt,value
2022-08-19T02:00:22.737Z,3.60
2022-08-19T02:00:43.331Z,3.80
2022-08-19T02:01:03.969Z,4.00
2022-08-19T02:01:24.580Z,3.50
2022-08-19T02:01:44.979Z,3.70
2022-08-19T02:02:05.564Z,3.80
2022-08-19T02:02:26.145Z,3.50
2022-08-19T02:02:46.796Z,3.60
2022-08-19T02:03:07.366Z,3.40
2022-08-19T02:03:27.944Z,3.40
2022-08-19T02:03:48.525Z,3.50
2022-08-19T02:04:09.125Z,3.50
2022-08-19T02:04:29.731Z,3.80
2022-08-19T02:04:50.312Z,3.30
2022-08-19T02:05:11.336Z,3.60
2022-08-19T02:05:31.974Z,3.50
2022-08-19T02:05:52.571Z,3.30
2022-08-19T02:06:13.150Z,3.40
2022-08-19T02:06:33.735Z,3.30
2022-08-19T02:06:54.385Z,3.60
2022-08-19T02:07:14.974Z,3.90
2022-08-19T02:07:35.556Z,3.70
2022-08-19T02:07:58.178Z,3.50
2022-08-19T02:08:18.761Z,3.60
2022-08-19T02:08:39.346Z,3.90
2022-08-19T02:08:59.932Z,3.70
2022-08-19T02:09:20.519Z,3.90
2022-08-19T02:09:41.106Z,4.00
2022-08-19T02:10:03.722Z,3.40
2022-08-19T02:10:22.092Z,3.70
2022-08-19T02:10:42.677Z,4.10
2022-08-19T02:11:03.262Z,3.90
2022-08-19T02:11:23.847Z,4.00
2022-08-19T02:11:44.431Z,3.90
2022-08-19T02:12:05.029Z,3.70
2022-08-19T02:12:25.631Z,3.90
2022-08-19T02:12:46.259Z,4.00
2022-08-19T02:13:06.609Z,3.90
2022-08-19T02:13:27.194Z,3.90
2022-08-19T02:13:47.778Z,4.20
2022-08-19T02:14:08.363Z,3.90
2022-08-19T02:14:28.947Z,3.50
2022-08-19T02:14:49.539Z,3.70
2022-08-19T02:15:10.120Z,4.00
2022-08-19T02:15:30.707Z,3.80
2022-08-19T02:15:51.285Z,3.90
2022-08-19T02:16:11.870Z,3.80
2022-08-19T02:16:32.452Z,3.60
2022-08-19T02:16:53.036Z,3.50
2022-08-19T02:17:13.636Z,3.90
2022-08-19T02:17:34.224Z,3.50
2022-08-19T02:17:54.808Z,3.60
2022-08-19T02:18:15.387Z,3.40
2022-08-19T02:18:35.973Z,3.70
2022-08-19T02:18:56.571Z,3.70
2022-08-19T02:19:17.159Z,3.50
2022-08-19T02:19:39.044Z,3.70
2022-08-19T02:20:01.601Z,4.00
2022-08-19T02:20:22.183Z,3.60
2022-08-19T02:20:42.780Z,3.50
2022-08-19T02:21:03.390Z,3.40
2022-08-19T02:21:23.973Z,3.50
2022-08-19T02:21:44.573Z,3.40
2022-08-19T02:22:05.140Z,3.30
2022-08-19T02:22:25.724Z,3.60
2022-08-19T02:22:46.302Z,3.60
2022-08-19T02:23:13.461Z,3.60
2022-08-19T02:23:27.310Z,3.80
2022-08-19T02:23:47.897Z,3.60
2022-08-19T02:24:08.479Z,3.30
2022-08-19T02:24:29.068Z,3.60
2022-08-19T02:24:49.650Z,3.40
2022-08-19T02:25:10.247Z,3.70
2022-08-19T02:25:30.826Z,3.90
2022-08-19T02:25:51.447Z,3.50
2022-08-19T02:26:12.035Z,3.50
2022-08-19T02:26:32.629Z,3.50
2022-08-19T02:26:53.250Z,3.50
2022-08-19T02:27:13.879Z,3.50
2022-08-19T02:27:34.498Z,3.60
2022-08-19T02:27:55.098Z,3.50
2022-08-19T02:28:18.728Z,3.40
2022-08-19T02:28:36.103Z,4.10
2022-08-19T02:28:56.680Z,3.90
2022-08-19T02:29:17.270Z,3.60
2022-08-19T02:29:37.858Z,3.70
2022-08-19T02:29:58.446Z,4.00
2022-08-19T02:30:19.033Z,3.60
2022-08-19T02:30:39.618Z,3.60
2022-08-19T02:31:00.199Z,3.30
2022-08-19T02:31:20.784Z,3.50
2022-08-19T02:31:41.375Z,3.40
2022-08-19T02:32:01.959Z,3.50
2022-08-19T02:32:22.567Z,3.80
2022-08-19T02:32:44.526Z,3.50
2022-08-19T02:33:05.560Z,3.20
2022-08-19T02:33:26.146Z,3.60
2022-08-19T02:33:46.745Z,3.80
2022-08-19T02:34:07.380Z,3.50
2022-08-19T02:34:27.930Z,3.50
2022-08-19T02:34:48.562Z,3.90
2022-08-19T02:35:12.211Z,3.90
2022-08-19T02:35:33.306Z,3.70
2022-08-19T02:35:53.901Z,3.50
2022-08-19T02:36:14.504Z,3.60
2022-08-19T02:36:36.119Z,3.90
2022-08-19T02:36:58.784Z,4.00
2022-08-19T02:37:16.966Z,4.00
2022-08-19T02:37:37.551Z,3.90
2022-08-19T02:37:57.944Z,3.50
2022-08-19T02:38:18.530Z,3.40
2022-08-19T02:38:39.140Z,3.50
2022-08-19T02:38:59.725Z,3.50
2022-08-19T02:39:20.316Z,3.80
2022-08-19T02:39:41.018Z,3.90
2022-08-19T02:40:01.720Z,3.60
2022-08-19T02:40:21.998Z,3.80
2022-08-19T02:40:42.585Z,3.70
2022-08-19T02:41:03.167Z,3.50
2022-08-19T02:41:23.777Z,3.60
2022-08-19T02:41:47.521Z,3.30
2022-08-19T02:42:08.143Z,3.40
2022-08-19T02:42:28.753Z,3.80
2022-08-19T02:42:49.349Z,3.70
2022-08-19T02:43:09.947Z,3.60
2022-08-19T02:43:33.777Z,3.80
2022-08-19T02:44:26.378Z,3.70
2022-08-19T02:44:30.313Z,3.70
2022-08-19T02:44:36.019Z,3.80
2022-08-19T02:44:56.607Z,3.70
2022-08-19T02:45:17.202Z,3.90
2022-08-19T02:45:40.463Z,3.80
2022-08-19T02:46:02.198Z,3.60
2022-08-19T02:46:22.822Z,3.60
2022-08-19T02:46:43.433Z,3.50
2022-08-19T02:47:04.022Z,3.70
2022-08-19T02:47:24.625Z,3.60
2022-08-19T02:47:45.208Z,3.60
2022-08-19T02:48:05.795Z,3.80
2022-08-19T02:48:26.213Z,3.70
2022-08-19T02:48:46.806Z,3.30
2022-08-19T02:49:07.425Z,3.70
2022-08-19T02:49:28.011Z,3.80
2022-08-19T02:49:48.599Z,3.60
2022-08-19T02:50:09.183Z,3.80
2022-08-19T02:50:29.768Z,3.60
2022-08-19T02:50:53.040Z,3.90
2022-08-19T02:51:14.212Z,3.60
2022-08-19T02:51:34.790Z,3.60
2022-08-19T02:51:55.397Z,3.50
2022-08-19T02:52:15.978Z,3.60
2022-08-19T02:52:36.578Z,3.50
2022-08-19T02:52:57.168Z,3.90
2022-08-19T02:53:17.572Z,4.20
2022-08-19T02:53:38.156Z,3.80
2022-08-19T02:53:58.776Z,3.40
2022-08-19T02:54:19.332Z,3.30
2022-08-19T02:54:39.920Z,3.60
2022-08-19T02:55:00.500Z,3.80
2022-08-19T02:55:21.083Z,3.60
2022-08-19T02:55:45.920Z,3.60
2022-08-19T02:56:01.824Z,3.80
2022-08-19T02:56:22.417Z,3.70
2022-08-19T02:56:43.023Z,3.40
2022-08-19T02:57:03.600Z,3.40
2022-08-19T02:57:24.224Z,3.30
2022-08-19T02:57:44.824Z,3.60
2022-08-19T02:58:05.431Z,3.50
2022-08-19T02:58:28.843Z,3.40
2022-08-19T02:58:49.437Z,3.10
2022-08-19T02:59:10.217Z,3.40
2022-08-19T02:59:30.550Z,3.70
2022-08-19T02:59:51.143Z,3.40
2022-08-19T03:00:11.731Z,3.50
2022-08-19T03:00:32.338Z,3.70
2022-08-19T03:00:54.316Z,3.70
2022-08-19T03:01:14.924Z,3.70
2022-08-19T03:01:35.544Z,3.50
2022-08-19T03:01:56.153Z,3.50
2022-08-19T03:02:17.006Z,3.70
2022-08-19T03:02:37.609Z,3.70
2022-08-19T03:02:58.010Z,3.70
2022-08-19T03:03:18.610Z,3.60
2022-08-19T03:03:39.215Z,3.60
2022-08-19T03:03:59.834Z,3.70
2022-08-19T03:04:20.469Z,3.60
2022-08-19T03:04:41.065Z,3.60
2022-08-19T03:05:01.677Z,3.80
2022-08-19T03:05:25.284Z,3.70
2022-08-19T03:05:45.953Z,3.40
2022-08-19T03:06:03.061Z,3.60
2022-08-19T03:06:23.696Z,3.60
2022-08-19T03:06:44.289Z,3.50
2022-08-19T03:07:07.227Z,3.80
2022-08-19T03:07:25.243Z,3.50
2022-08-19T03:07:45.913Z,3.60
2022-08-19T03:08:06.539Z,3.70
2022-08-19T03:08:27.126Z,3.50
2022-08-19T03:08:47.719Z,3.70
2022-08-19T03:09:08.131Z,3.50
2022-08-19T03:09:28.719Z,3.70
2022-08-19T03:09:49.316Z,3.60
2022-08-19T03:10:09.909Z,3.70
2022-08-19T03:10:30.498Z,3.70
2022-08-19T03:10:51.088Z,3.60
2022-08-19T03:11:11.672Z,3.40
2022-08-19T03:11:32.258Z,3.60
2022-08-19T03:11:52.941Z,3.60
2022-08-19T03:12:13.546Z,3.60
2022-08-19T03:12:34.129Z,3.30
2022-08-19T03:12:54.783Z,3.40
2022-08-19T03:13:15.336Z,3.60
2022-08-19T03:13:35.923Z,3.60
2022-08-19T03:13:56.519Z,3.60
2022-08-19T03:14:17.112Z,3.70
2022-08-19T03:14:37.696Z,3.70
2022-08-19T03:14:58.284Z,3.70
2022-08-19T03:15:18.869Z,3.60
2022-08-19T03:15:39.454Z,3.80
2022-08-19T03:16:00.084Z,3.40
2022-08-19T03:16:20.653Z,3.40
2022-08-19T03:16:41.234Z,3.30
2022-08-19T03:17:01.841Z,3.80
2022-08-19T03:17:22.440Z,3.40
2022-08-19T03:17:43.043Z,3.50
2022-08-19T03:18:03.646Z,3.60
2022-08-19T03:18:24.247Z,3.40
2022-08-19T03:18:44.854Z,3.30
2022-08-19T03:19:05.464Z,3.60
2022-08-19T03:19:26.067Z,4.00
2022-08-19T03:19:46.650Z,4.00
2022-08-19T03:20:07.238Z,3.80
2022-08-19T03:20:27.828Z,3.50
2022-08-19T03:20:48.419Z,3.50
2022-08-19T03:21:12.463Z,4.00
2022-08-19T03:21:33.236Z,3.80
2022-08-19T03:21:53.816Z,3.80
2022-08-19T03:22:14.401Z,3.70
2022-08-19T03:22:34.985Z,4.10
2022-08-19T03:22:55.594Z,3.90
2022-08-19T03:23:16.216Z,3.60
2022-08-19T03:23:36.800Z,4.00
2022-08-19T03:23:57.394Z,3.70
2022-08-19T03:24:17.982Z,3.70
2022-08-19T03:24:38.577Z,3.60
2022-08-19T03:25:00.027Z,3.60
2022-08-19T03:25:20.638Z,3.70
2022-08-19T03:25:41.219Z,4.00
2022-08-19T03:26:16.036Z,3.90
2022-08-19T03:26:22.230Z,3.70
2022-08-19T03:26:42.828Z,3.30
2022-08-19T03:27:03.413Z,3.80
2022-08-19T03:27:24.001Z,3.70
2022-08-19T03:27:44.445Z,3.70
2022-08-19T03:28:05.030Z,3.40
2022-08-19T03:28:25.607Z,3.40
2022-08-19T03:28:50.948Z,3.70
2022-08-19T03:29:06.597Z,3.70
2022-08-19T03:29:30.661Z,3.70
2022-08-19T03:29:51.597Z,3.50
2022-08-19T03:30:12.527Z,3.90
2022-08-19T03:30:33.117Z,3.90
2022-08-19T03:30:54.060Z,3.90
2022-08-19T03:31:44.115Z,3.40
2022-08-19T03:31:44.794Z,3.70
2022-08-19T03:31:55.465Z,3.30
2022-08-19T03:32:32.251Z,3.90
2022-08-19T03:32:36.451Z,4.00
2022-08-19T03:32:57.161Z,3.70
2022-08-19T03:33:18.290Z,3.50
2022-08-19T03:33:38.373Z,3.50
2022-08-19T03:33:58.967Z,3.60
2022-08-19T03:34:19.381Z,3.30
2022-08-19T03:34:39.947Z,3.50
2022-08-19T03:35:00.533Z,3.20
2022-08-19T03:35:21.120Z,3.80
2022-08-19T03:35:41.696Z,3.80
2022-08-19T03:36:02.284Z,3.70
2022-08-19T03:36:22.964Z,3.40
2022-08-19T03:36:43.565Z,3.70
2022-08-19T03:37:04.157Z,3.50
2022-08-19T03:37:24.748Z,3.80
2022-08-19T03:37:46.444Z,3.60
2022-08-19T03:38:07.050Z,3.70
2022-08-19T03:38:27.636Z,3.90
2022-08-19T03:38:48.219Z,3.90
2022-08-19T03:39:08.641Z,3.70
2022-08-19T03:39:29.338Z,3.60
2022-08-19T03:39:49.975Z,3.30
2022-08-19T03:40:12.180Z,3.40
2022-08-19T03:40:30.970Z,3.60
2022-08-19T03:40:51.556Z,3.70
2022-08-19T03:41:12.142Z,3.60
2022-08-19T03:41:34.270Z,3.30
2022-08-19T03:42:31.844Z,3.80
2022-08-19T03:42:38.676Z,3.70
2022-08-19T03:42:48.895Z,3.60
2022-08-19T03:42:54.368Z,3.30
2022-08-19T03:43:17.176Z,3.60
2022-08-19T03:43:37.768Z,3.50
2022-08-19T03:43:58.373Z,3.60
2022-08-19T03:44:19.470Z,3.60
2022-08-19T03:44:40.170Z,3.50
2022-08-19T03:45:00.763Z,3.90
2022-08-19T03:45:21.360Z,3.60
2022-08-19T03:45:41.945Z,3.50
2022-08-19T03:46:02.528Z,3.40
2022-08-19T03:46:23.130Z,3.70
2022-08-19T03:46:44.572Z,3.60
2022-08-19T03:47:05.229Z,3.70
2022-08-19T03:47:25.821Z,4.00
2022-08-19T03:47:46.405Z,4.00
2022-08-19T03:48:07.020Z,3.60
2022-08-19T03:48:27.618Z,3.50
2022-08-19T03:48:48.199Z,3.90
2022-08-19T03:49:08.775Z,3.70
2022-08-19T03:49:29.368Z,3.70
2022-08-19T03:49:50.247Z,3.60
2022-08-19T03:50:10.880Z,3.70
2022-08-19T03:50:31.838Z,3.90
2022-08-19T03:50:52.428Z,3.90
2022-08-19T03:51:13.026Z,3.60
2022-08-19T03:51:33.617Z,3.80
2022-08-19T03:51:54.207Z,4.10
2022-08-19T03:52:14.793Z,4.10
2022-08-19T03:52:35.395Z,3.90
2022-08-19T03:52:55.982Z,3.80
2022-08-19T03:53:16.627Z,4.00
2022-08-19T03:53:37.209Z,3.80
2022-08-19T03:53:57.789Z,3.60
2022-08-19T03:54:18.378Z,3.50
2022-08-19T03:54:38.976Z,3.40
2022-08-19T03:54:59.549Z,3.50
2022-08-19T03:55:20.131Z,3.60
2022-08-19T03:55:40.717Z,3.70
2022-08-19T03:56:01.316Z,3.60
2022-08-19T03:56:21.898Z,3.60
2022-08-19T03:56:42.482Z,3.70
2022-08-19T03:57:03.064Z,3.80
2022-08-19T03:57:31.753Z,3.90
2022-08-19T03:57:44.062Z,3.80
2022-08-19T03:58:04.661Z,3.90
2022-08-19T03:58:25.261Z,4.00
2022-08-19T03:58:45.854Z,3.50
2022-08-19T03:59:07.170Z,3.70
2022-08-19T03:59:27.732Z,4.00
2022-08-19T03:59:48.356Z,3.70
2022-08-19T04:00:13.658Z,3.60
2022-08-19T04:00:29.342Z,3.90
2022-08-19T04:00:49.981Z,3.90
2022-08-19T04:01:10.586Z,4.00
2022-08-19T04:01:35.129Z,3.90
2022-08-19T04:01:51.562Z,3.90
2022-08-19T04:02:12.157Z,3.60
2022-08-19T04:02:32.749Z,3.70
2022-08-19T04:02:58.713Z,4.00
2022-08-19T04:03:13.810Z,3.90
2022-08-19T04:03:34.403Z,3.70
2022-08-19T04:03:54.993Z,3.90
2022-08-19T04:04:16.305Z,4.10
2022-08-19T04:04:36.889Z,4.00
2022-08-19T04:04:57.479Z,4.10
2022-08-19T04:05:18.068Z,4.00
2022-08-19T04:05:38.657Z,3.80
2022-08-19T04:05:59.246Z,3.70
2022-08-19T04:06:19.858Z,3.90
2022-08-19T04:06:40.444Z,3.90
2022-08-19T04:07:01.023Z,3.80
2022-08-19T04:07:21.610Z,3.70
2022-08-19T04:07:42.191Z,4.00
2022-08-19T04:08:02.778Z,4.10
2022-08-19T04:08:23.419Z,4.00
2022-08-19T04:08:44.009Z,4.00
2022-08-19T04:09:04.605Z,4.00
2022-08-19T04:09:25.191Z,4.00
2022-08-19T04:09:45.773Z,3.80
2022-08-19T04:10:06.366Z,3.60
2022-08-19T04:10:31.143Z,3.70
2022-08-19T04:10:51.743Z,4.20
2022-08-19T04:11:12.350Z,3.80
2022-08-19T04:11:43.843Z,3.80
2022-08-19T04:11:53.361Z,4.10
2022-08-19T04:12:13.959Z,3.80
2022-08-19T04:12:34.541Z,3.90
2022-08-19T04:12:55.159Z,3.90
2022-08-19T04:13:15.757Z,4.00
2022-08-19T04:13:36.363Z,3.80
2022-08-19T04:13:56.963Z,4.10
2022-08-19T04:14:17.548Z,4.10
2022-08-19T04:14:38.132Z,4.20
2022-08-19T04:14:58.734Z,4.00
2022-08-19T04:15:19.320Z,4.00
2022-08-19T04:15:39.901Z,4.30
2022-08-19T04:16:00.484Z,4.40
2022-08-19T04:16:21.067Z,4.10
2022-08-19T04:16:41.799Z,4.10
2022-08-19T04:17:02.383Z,4.00
2022-08-19T04:17:22.967Z,3.90
2022-08-19T04:17:43.560Z,3.70
2022-08-19T04:18:04.134Z,3.70
2022-08-19T04:18:24.743Z,4.00
2022-08-19T04:18:45.326Z,4.00
2022-08-19T04:19:05.911Z,3.90
2022-08-19T04:19:26.500Z,3.80
2022-08-19T04:19:47.081Z,4.10
2022-08-19T04:20:07.676Z,4.20
2022-08-19T04:20:28.280Z,3.90
2022-08-19T04:20:48.888Z,4.10
2022-08-19T04:21:09.456Z,4.00
2022-08-19T04:21:30.053Z,4.00
2022-08-19T04:21:50.646Z,3.70
2022-08-19T04:22:11.237Z,4.00
2022-08-19T04:22:31.823Z,4.20
2022-08-19T04:22:52.611Z,4.50
2022-08-19T04:23:13.349Z,4.90
2022-08-19T04:23:33.902Z,4.70
2022-08-19T04:23:54.498Z,4.30
2022-08-19T04:24:16.387Z,4.30
2022-08-19T04:24:36.969Z,4.50
2022-08-19T04:24:57.562Z,4.40
2022-08-19T04:25:18.161Z,4.30
2022-08-19T04:25:38.768Z,3.90
2022-08-19T04:25:59.356Z,4.20
2022-08-19T04:26:19.976Z,4.00
2022-08-19T04:26:40.562Z,4.20
2022-08-19T04:27:01.143Z,3.90
2022-08-19T04:27:21.723Z,3.80
2022-08-19T04:27:42.130Z,3.90
2022-08-19T04:28:02.739Z,4.00
2022-08-19T04:28:23.322Z,4.20
2022-08-19T04:28:43.945Z,4.00
2022-08-19T04:29:04.533Z,4.10
2022-08-19T04:29:25.121Z,4.10
2022-08-19T04:29:45.704Z,3.80
2022-08-19T04:30:06.289Z,3.80
2022-08-19T04:30:26.875Z,3.50
2022-08-19T04:30:47.456Z,3.30
2022-08-19T04:31:08.042Z,3.60
2022-08-19T04:31:28.627Z,3.40
2022-08-19T04:31:49.224Z,3.40
2022-08-19T04:32:10.099Z,3.60
2022-08-19T04:32:30.749Z,4.00
2022-08-19T04:32:51.336Z,3.90
2022-08-19T04:33:11.919Z,4.00
2022-08-19T04:33:32.524Z,4.00
2022-08-19T04:33:53.178Z,3.70
2022-08-19T04:34:13.750Z,3.60
2022-08-19T04:34:34.340Z,3.60
2022-08-19T04:35:01.118Z,3.70
2022-08-19T04:35:17.977Z,4.00
2022-08-19T04:35:39.904Z,4.10
2022-08-19T04:36:00.485Z,4.20
2022-08-19T04:36:21.069Z,4.10
2022-08-19T04:36:41.649Z,4.20
2022-08-19T04:37:02.233Z,4.50
2022-08-19T04:37:22.815Z,3.90
2022-08-19T04:37:43.396Z,3.80
2022-08-19T04:38:03.984Z,3.90
2022-08-19T04:38:24.568Z,3.80
2022-08-19T04:38:45.173Z,3.90
2022-08-19T04:39:05.760Z,3.70
2022-08-19T04:39:26.350Z,3.90
2022-08-19T04:39:46.977Z,3.90
2022-08-19T04:40:07.643Z,3.70
2022-08-19T04:40:28.225Z,3.70
2022-08-19T04:40:48.805Z,3.50
2022-08-19T04:41:09.393Z,3.50
2022-08-19T04:41:30.002Z,3.60
2022-08-19T04:41:50.607Z,3.70
2022-08-19T04:42:11.198Z,3.90
2022-08-19T04:42:31.795Z,3.90
2022-08-19T04:42:52.570Z,3.70
2022-08-19T04:43:13.259Z,4.10
2022-08-19T04:43:33.842Z,4.00
2022-08-19T04:43:54.477Z,3.80
2022-08-19T04:44:15.071Z,3.80
2022-08-19T04:44:35.659Z,3.70
2022-08-19T04:44:56.238Z,3.60
2022-08-19T04:45:17.739Z,3.50
2022-08-19T04:45:43.651Z,3.90
2022-08-19T04:46:00.858Z,3.90
2022-08-19T04:46:40.199Z,4.00
2022-08-19T04:46:51.161Z,3.70
2022-08-19T04:47:02.601Z,3.70
2022-08-19T04:47:47.096Z,3.80
2022-08-19T04:47:47.842Z,4.00
2022-08-19T04:48:26.533Z,4.30
2022-08-19T04:48:27.084Z,4.00
2022-08-19T04:48:49.408Z,3.70
2022-08-19T04:49:13.204Z,3.90
2022-08-19T04:49:30.598Z,4.00
2022-08-19T04:49:51.184Z,4.00
2022-08-19T04:50:11.768Z,4.00
2022-08-19T04:50:32.364Z,3.90
2022-08-19T04:50:53.001Z,4.00
2022-08-19T04:51:13.603Z,4.10
2022-08-19T04:51:34.186Z,4.10
2022-08-19T04:51:54.767Z,3.90
2022-08-19T04:52:15.353Z,3.70
2022-08-19T04:52:35.958Z,4.10
2022-08-19T04:52:56.703Z,4.20
2022-08-19T04:53:17.276Z,3.90
2022-08-19T04:53:38.213Z,4.10
2022-08-19T04:53:58.826Z,4.40
2022-08-19T04:54:36.936Z,4.20
2022-08-19T04:54:40.158Z,4.00
2022-08-19T04:55:00.752Z,3.90
2022-08-19T04:55:21.343Z,3.90
2022-08-19T04:55:41.919Z,3.80
2022-08-19T04:56:02.527Z,4.00
2022-08-19T04:56:23.102Z,3.90
2022-08-19T04:56:43.718Z,4.00
2022-08-19T04:57:04.306Z,4.20
2022-08-19T04:57:24.975Z,4.20
2022-08-19T04:57:45.573Z,3.40
2022-08-19T04:58:06.153Z,3.60
2022-08-19T04:58:26.736Z,3.90
2022-08-19T04:58:47.320Z,4.00
2022-08-19T04:59:54.588Z,4.00
2022-08-19T05:00:15.179Z,4.10
2022-08-19T05:00:35.867Z,3.90
2022-08-19T05:00:58.761Z,3.90
2022-08-19T05:01:19.168Z,3.60
2022-08-19T05:01:39.712Z,3.70
2022-08-19T05:02:00.294Z,3.80
2022-08-19T05:02:20.878Z,3.80
2022-08-19T05:02:41.502Z,4.20
2022-08-19T05:03:02.062Z,4.20
2022-08-19T05:03:26.492Z,3.80
2022-08-19T05:03:43.981Z,3.90
2022-08-19T05:04:04.591Z,4.00
2022-08-19T05:04:25.176Z,3.90
2022-08-19T05:04:45.753Z,4.00
2022-08-19T05:05:06.337Z,4.30
2022-08-19T05:05:26.921Z,4.10
2022-08-19T05:05:47.508Z,4.30
2022-08-19T05:06:08.090Z,3.80
2022-08-19T05:06:28.672Z,4.00
2022-08-19T05:06:49.255Z,4.10
2022-08-19T05:07:09.836Z,4.40
2022-08-19T05:07:30.228Z,4.10
2022-08-19T05:07:50.813Z,4.10
2022-08-19T05:08:11.394Z,4.30
2022-08-19T05:08:31.858Z,4.20
2022-08-19T05:08:52.397Z,3.90
2022-08-19T05:09:12.995Z,3.90
2022-08-19T05:09:57.809Z,3.80
2022-08-19T05:09:58.544Z,3.70
2022-08-19T05:10:14.375Z,3.80
2022-08-19T05:10:34.960Z,4.00
2022-08-19T05:10:55.545Z,4.00
2022-08-19T05:11:16.124Z,4.10
2022-08-19T05:11:36.710Z,4.00
2022-08-19T05:11:57.293Z,4.00
2022-08-19T05:12:17.875Z,4.20
2022-08-19T05:12:38.274Z,4.00
2022-08-19T05:12:58.667Z,3.90
2022-08-19T05:13:19.252Z,4.00
2022-08-19T05:13:39.836Z,3.50
2022-08-19T05:14:02.522Z,4.20
2022-08-19T05:14:23.121Z,4.10
2022-08-19T05:14:43.699Z,3.60
2022-08-19T05:15:04.283Z,4.20
2022-08-19T05:15:24.861Z,4.20
2022-08-19T05:15:45.442Z,4.10
2022-08-19T05:16:06.025Z,4.00
2022-08-19T05:16:26.419Z,4.00
2022-08-19T05:16:47.007Z,4.00
2022-08-19T05:17:26.770Z,4.20
2022-08-19T05:17:30.307Z,4.30
2022-08-19T05:17:48.395Z,4.10
2022-08-19T05:18:08.978Z,4.00
2022-08-19T05:18:29.561Z,4.00
2022-08-19T05:18:50.146Z,4.20
2022-08-19T05:19:10.747Z,4.20
2022-08-19T05:19:31.324Z,4.20
2022-08-19T05:19:54.119Z,4.70
2022-08-19T05:20:14.714Z,4.10
2022-08-19T05:20:35.287Z,3.80
2022-08-19T05:20:55.873Z,4.20
2022-08-19T05:21:16.454Z,3.90
2022-08-19T05:21:37.048Z,3.80
2022-08-19T05:21:57.631Z,3.80
2022-08-19T05:22:18.216Z,3.80
2022-08-19T05:22:38.796Z,4.30
2022-08-19T05:22:59.388Z,4.20
2022-08-19T05:23:22.785Z,4.20
2022-08-19T05:23:43.628Z,4.10
2022-08-19T05:24:04.207Z,4.10
2022-08-19T05:24:24.620Z,3.80
2022-08-19T05:25:09.193Z,4.40
2022-08-19T05:25:12.633Z,4.20
2022-08-19T05:25:26.006Z,4.20
2022-08-19T05:25:46.400Z,4.10
2022-08-19T05:26:06.795Z,4.00
2022-08-19T05:26:27.377Z,4.10
2022-08-19T05:26:47.770Z,4.30
2022-08-19T05:27:08.358Z,4.20
2022-08-19T05:27:28.943Z,4.10
2022-08-19T05:27:49.538Z,4.30
2022-08-19T05:28:10.116Z,4.00
2022-08-19T05:28:30.697Z,4.30
2022-08-19T05:28:54.728Z,4.30
2022-08-19T05:29:15.422Z,3.80
2022-08-19T05:29:36.687Z,3.90
2022-08-19T05:29:57.248Z,4.20
2022-08-19T05:30:17.831Z,4.10
2022-08-19T05:30:47.292Z,4.30
2022-08-19T05:30:58.805Z,4.60
2022-08-19T05:31:19.391Z,4.20
2022-08-19T05:31:41.764Z,4.10
2022-08-19T05:32:02.523Z,4.00
2022-08-19T05:32:23.108Z,4.20
2022-08-19T05:32:43.691Z,4.70
2022-08-19T05:33:04.276Z,4.20
2022-08-19T05:33:24.857Z,4.20
2022-08-19T05:33:45.441Z,4.30
2022-08-19T05:34:06.038Z,3.80
2022-08-19T05:34:26.444Z,4.00
2022-08-19T05:34:46.833Z,4.30
2022-08-19T05:35:07.418Z,4.40
2022-08-19T05:35:27.996Z,4.10
2022-08-19T05:35:48.402Z,4.20
2022-08-19T05:36:08.988Z,4.20
2022-08-19T05:36:29.572Z,3.80
2022-08-19T05:36:50.155Z,4.10
2022-08-19T05:37:10.732Z,4.30
2022-08-19T05:37:31.318Z,4.00
2022-08-19T05:37:54.926Z,4.30
2022-08-19T05:38:12.306Z,4.40
2022-08-19T05:38:32.703Z,4.30
2022-08-19T05:38:53.292Z,4.70
2022-08-19T05:39:13.896Z,4.70
2022-08-19T05:39:34.506Z,4.10
2022-08-19T05:39:55.154Z,4.30
2022-08-19T05:40:15.809Z,4.30
2022-08-19T05:40:36.404Z,4.50
2022-08-19T05:40:56.990Z,4.50
2022-08-19T05:41:17.574Z,4.30
2022-08-19T05:41:38.157Z,3.80
2022-08-19T05:41:58.741Z,4.10
2022-08-19T05:42:19.328Z,4.40
2022-08-19T05:42:39.909Z,4.50
2022-08-19T05:43:00.490Z,4.30
2022-08-19T05:43:21.072Z,4.40
2022-08-19T05:43:41.656Z,4.40
2022-08-19T05:44:02.243Z,4.50
2022-08-19T05:44:22.852Z,4.10
2022-08-19T05:44:43.426Z,4.20
2022-08-19T05:45:04.016Z,4.20
2022-08-19T05:45:24.601Z,4.20
2022-08-19T05:45:45.180Z,4.60
2022-08-19T05:46:05.759Z,4.50
2022-08-19T05:46:27.901Z,4.60
2022-08-19T05:46:48.825Z,4.10
2022-08-19T05:47:09.219Z,4.70
2022-08-19T05:47:29.801Z,4.70
2022-08-19T05:47:50.379Z,4.60
2022-08-19T05:48:10.964Z,4.60
2022-08-19T05:48:31.362Z,4.60
2022-08-19T05:48:51.943Z,4.50
2022-08-19T05:49:15.287Z,4.30
2022-08-19T05:49:35.890Z,4.70
2022-08-19T05:49:56.474Z,4.60
2022-08-19T05:50:17.058Z,4.80
2022-08-19T05:50:37.635Z,4.50
2022-08-19T05:50:58.220Z,4.50
2022-08-19T05:51:18.806Z,4.80
2022-08-19T05:51:39.386Z,4.70
2022-08-19T05:51:59.970Z,4.60
2022-08-19T05:52:25.705Z,4.40
2022-08-19T05:52:43.645Z,4.80
2022-08-19T05:53:01.299Z,5.00
2022-08-19T05:53:21.886Z,4.50
2022-08-19T05:53:42.469Z,4.50
2022-08-19T05:54:03.050Z,4.60
2022-08-19T05:54:23.640Z,4.70
2022-08-19T05:54:44.240Z,4.90
2022-08-19T05:55:04.823Z,4.50
2022-08-19T05:55:25.404Z,4.70
2022-08-19T05:55:45.983Z,5.00
2022-08-19T05:56:06.568Z,4.80
2022-08-19T05:56:27.162Z,4.70
2022-08-19T05:56:47.749Z,4.60
2022-08-19T05:57:08.341Z,4.50
2022-08-19T05:57:32.217Z,4.40
2022-08-19T05:57:52.801Z,4.20
2022-08-19T05:58:13.377Z,4.40
2022-08-19T05:58:33.968Z,4.40
2022-08-19T05:58:54.540Z,4.50
2022-08-19T05:59:15.124Z,4.30
2022-08-19T05:59:35.940Z,4.70
2022-08-19T05:59:59.662Z,5.00
2022-08-19T06:00:24.492Z,4.90
2022-08-19T06:00:45.280Z,4.30
2022-08-19T06:01:05.671Z,5.00
2022-08-19T06:01:26.256Z,4.30
2022-08-19T06:01:46.836Z,4.70
2022-08-19T06:02:07.603Z,4.70
2022-08-19T06:02:28.318Z,4.50
2022-08-19T06:02:49.017Z,4.50
2022-08-19T06:03:09.590Z,4.50
2022-08-19T06:03:32.522Z,4.50
2022-08-19T06:03:53.106Z,4.70
2022-08-19T06:04:13.690Z,4.60
2022-08-19T06:04:34.274Z,4.80
2022-08-19T06:04:54.870Z,4.30
2022-08-19T06:05:15.452Z,4.80
2022-08-19T06:05:44.750Z,4.40
2022-08-19T06:05:56.431Z,4.60
2022-08-19T06:06:17.011Z,4.70
2022-08-19T06:06:37.592Z,4.90
2022-08-19T06:06:58.175Z,4.80
2022-08-19T06:07:18.756Z,4.40
2022-08-19T06:07:39.342Z,4.60
2022-08-19T06:07:59.924Z,4.80
2022-08-19T06:08:20.506Z,5.30
2022-08-19T06:08:40.907Z,4.90
2022-08-19T06:09:01.302Z,5.00
2022-08-19T06:09:21.882Z,4.70
2022-08-19T06:09:43.658Z,4.50
2022-08-19T06:10:02.945Z,4.70
2022-08-19T06:10:23.507Z,5.20
2022-08-19T06:10:44.094Z,5.10
2022-08-19T06:11:04.494Z,4.80
2022-08-19T06:11:25.076Z,4.50
2022-08-19T06:11:45.658Z,4.50
2022-08-19T06:12:06.247Z,4.80
2022-08-19T06:12:26.830Z,4.60
2022-08-19T06:12:47.412Z,5.00
2022-08-19T06:13:08.000Z,4.90
2022-08-19T06:13:28.581Z,4.50
2022-08-19T06:13:48.704Z,4.30
2022-08-19T06:14:09.287Z,4.90
2022-08-19T06:14:29.689Z,5.40
2022-08-19T06:14:55.980Z,5.20
2022-08-19T06:15:10.697Z,4.80
2022-08-19T06:15:31.269Z,4.60
2022-08-19T06:15:51.848Z,4.60
2022-08-19T06:16:12.426Z,5.00
2022-08-19T06:16:33.003Z,4.50
2022-08-19T06:16:53.585Z,4.90
2022-08-19T06:17:14.173Z,4.70
2022-08-19T06:17:34.754Z,4.60
2022-08-19T06:17:55.401Z,5.20
2022-08-19T06:18:16.036Z,5.30
2022-08-19T06:18:36.620Z,5.10
2022-08-19T06:18:57.205Z,4.80
2022-08-19T06:19:17.787Z,4.80
2022-08-19T06:19:40.621Z,4.80
2022-08-19T06:20:01.704Z,5.10
2022-08-19T06:20:39.842Z,5.10
2022-08-19T06:20:55.406Z,5.30
2022-08-19T06:21:03.083Z,5.50
2022-08-19T06:21:23.665Z,5.30
2022-08-19T06:21:44.250Z,5.10
2022-08-19T06:22:04.833Z,5.00
2022-08-19T06:22:25.225Z,5.30
2022-08-19T06:22:45.813Z,5.00
2022-08-19T06:23:06.406Z,4.90
2022-08-19T06:23:26.989Z,5.40
2022-08-19T06:23:47.384Z,5.50
2022-08-19T06:24:07.971Z,5.00
2022-08-19T06:24:28.552Z,4.80
2022-08-19T06:24:49.141Z,4.90
2022-08-19T06:25:09.724Z,5.30
2022-08-19T06:25:30.629Z,5.10
2022-08-19T06:25:51.224Z,5.30
2022-08-19T06:26:11.805Z,5.10
2022-08-19T06:26:32.386Z,4.90
2022-08-19T06:26:53.118Z,5.10
2022-08-19T06:27:14.145Z,5.30
2022-08-19T06:27:34.725Z,5.60
2022-08-19T06:28:13.921Z,5.20
2022-08-19T06:28:15.961Z,4.90
2022-08-19T06:28:36.101Z,5.00
2022-08-19T06:28:56.684Z,5.40
2022-08-19T06:29:23.422Z,5.40
2022-08-19T06:29:37.673Z,5.40
2022-08-19T06:29:58.252Z,5.20
2022-08-19T06:30:18.851Z,5.10
2022-08-19T06:30:39.444Z,5.30
2022-08-19T06:31:00.021Z,5.80
2022-08-19T06:31:20.601Z,5.60
2022-08-19T06:31:41.189Z,5.10
2022-08-19T06:32:02.717Z,5.10
2022-08-19T06:32:23.286Z,5.30
2022-08-19T06:32:43.684Z,5.20
2022-08-19T06:33:04.264Z,5.10
2022-08-19T06:33:24.848Z,5.00
2022-08-19T06:33:45.435Z,5.60
2022-08-19T06:34:06.092Z,5.20
2022-08-19T06:34:26.670Z,4.90
2022-08-19T06:34:47.246Z,5.30
2022-08-19T06:35:07.838Z,5.30
2022-08-19T06:35:28.426Z,4.90
2022-08-19T06:35:49.007Z,5.00
2022-08-19T06:36:09.603Z,5.50
2022-08-19T06:36:30.183Z,5.50